sensor_id;sensor_type;location;lat;lon;timestamp;P1;durP1;ratioP1;P2;durP2;ratioP2
57778;SDS011;43608;49.486;9.640;2022-12-07T00:00:20;4.75;;;3.60;;
57778;SDS011;43608;49.486;9.640;2022-12-07T00:00:50;4.60;;;3.65;;
57778;SDS011;43608;49.486;9.640;2022-12-07T00:01:21;4.95;;;3.63;;
57778;SDS011;43608;49.486;9.640;2022-12-07T00:01:53;4.80;;;3.67;;
57778;SDS011;43608;49.486;9.640;2022-12-07T00:02:23;4.80;;;3.50;;
57778;SDS011;43608;49.486;9.640;2022-12-07T00:02:54;4.82;;;3.88;;
57778;SDS011;43608;49.486;9.640;2022-12-07T00:03:24;4.95;;;3.65;;
57778;SDS011;43608;49.486;9.640;2022-12-07T00:03:55;5.63;;;4.03;;
57778;SDS011;43608;49.486;9.640;2022-12-07T00:04:30;4.45;;;3.35;;
57778;SDS011;43608;49.486;9.640;2022-12-07T00:05:00;5.63;;;3.80;;
57778;SDS011;43608;49.486;9.640;2022-12-07T00:05:31;5.88;;;4.00;;
57778;SDS011;43608;49.486;9.640;2022-12-07T00:06:01;5.05;;;3.95;;
57778;SDS011;43608;49.486;9.640;2022-12-07T00:06:37;5.18;;;3.72;;
57778;SDS011;43608;49.486;9.640;2022-12-07T00:07:08;5.03;;;3.75;;
57778;SDS011;43608;49.486;9.640;2022-12-07T00:07:39;5.25;;;3.80;;
57778;SDS011;43608;49.486;9.640;2022-12-07T00:08:09;5.00;;;3.67;;
57778;SDS011;43608;49.486;9.640;2022-12-07T00:08:39;4.75;;;3.70;;
57778;SDS011;43608;49.486;9.640;2022-12-07T00:09:11;5.40;;;3.88;;
57778;SDS011;43608;49.486;9.640;2022-12-07T00:09:43;4.68;;;3.70;;
57778;SDS011;43608;49.486;9.640;2022-12-07T00:10:13;6.07;;;4.25;;
57778;SDS011;43608;49.486;9.640;2022-12-07T00:10:44;5.05;;;3.97;;
57778;SDS011;43608;49.486;9.640;2022-12-07T00:11:15;4.95;;;3.80;;
57778;SDS011;43608;49.486;9.640;2022-12-07T00:11:48;5.07;;;3.90;;
57778;SDS011;43608;49.486;9.640;2022-12-07T00:12:20;5.03;;;3.92;;
57778;SDS011;43608;49.486;9.640;2022-12-07T00:12:50;5.32;;;4.25;;
57778;SDS011;43608;49.486;9.640;2022-12-07T00:13:21;4.82;;;3.63;;
57778;SDS011;43608;49.486;9.640;2022-12-07T00:13:55;4.70;;;3.60;;
57778;SDS011;43608;49.486;9.640;2022-12-07T00:14:30;5.20;;;4.00;;
57778;SDS011;43608;49.486;9.640;2022-12-07T00:15:01;5.00;;;3.70;;
57778;SDS011;43608;49.486;9.640;2022-12-07T00:15:33;5.22;;;3.75;;
57778;SDS011;43608;49.486;9.640;2022-12-07T00:16:05;4.28;;;3.60;;
57778;SDS011;43608;49.486;9.640;2022-12-07T00:16:38;5.07;;;3.83;;
57778;SDS011;43608;49.486;9.640;2022-12-07T00:17:09;5.22;;;4.00;;
57778;SDS011;43608;49.486;9.640;2022-12-07T00:17:39;5.10;;;3.95;;
57778;SDS011;43608;49.486;9.640;2022-12-07T00:18:09;4.63;;;3.70;;
57778;SDS011;43608;49.486;9.640;2022-12-07T00:18:40;4.97;;;3.78;;
57778;SDS011;43608;49.486;9.640;2022-12-07T00:19:12;5.20;;;4.00;;
57778;SDS011;43608;49.486;9.640;2022-12-07T00:19:43;5.07;;;3.90;;
57778;SDS011;43608;49.486;9.640;2022-12-07T00:20:13;4.75;;;3.70;;
57778;SDS011;43608;49.486;9.640;2022-12-07T00:20:44;6.30;;;4.13;;
57778;SDS011;43608;49.486;9.640;2022-12-07T00:21:15;5.63;;;4.25;;
57778;SDS011;43608;49.486;9.640;2022-12-07T00:21:47;5.45;;;3.78;;
57778;SDS011;43608;49.486;9.640;2022-12-07T00:22:17;6.07;;;4.15;;
57778;SDS011;43608;49.486;9.640;2022-12-07T00:22:48;5.15;;;3.78;;
57778;SDS011;43608;49.486;9.640;2022-12-07T00:23:18;5.15;;;3.95;;
57778;SDS011;43608;49.486;9.640;2022-12-07T00:23:49;6.13;;;4.20;;
57778;SDS011;43608;49.486;9.640;2022-12-07T00:24:21;4.90;;;3.85;;
57778;SDS011;43608;49.486;9.640;2022-12-07T00:24:51;4.38;;;3.40;;
57778;SDS011;43608;49.486;9.640;2022-12-07T00:25:22;5.53;;;3.85;;
57778;SDS011;43608;49.486;9.640;2022-12-07T00:25:52;5.43;;;4.03;;
57778;SDS011;43608;49.486;9.640;2022-12-07T00:26:26;5.22;;;4.00;;
57778;SDS011;43608;49.486;9.640;2022-12-07T00:26:58;4.90;;;3.80;;
57778;SDS011;43608;49.486;9.640;2022-12-07T00:27:28;5.50;;;3.88;;
57778;SDS011;43608;49.486;9.640;2022-12-07T00:27:59;4.78;;;3.75;;
57778;SDS011;43608;49.486;9.640;2022-12-07T00:28:29;5.25;;;3.78;;
57778;SDS011;43608;49.486;9.640;2022-12-07T00:29:01;5.10;;;4.20;;
57778;SDS011;43608;49.486;9.640;2022-12-07T00:29:34;5.07;;;3.70;;
57778;SDS011;43608;49.486;9.640;2022-12-07T00:30:04;5.18;;;3.80;;
57778;SDS011;43608;49.486;9.640;2022-12-07T00:30:35;5.38;;;4.10;;
57778;SDS011;43608;49.486;9.640;2022-12-07T00:31:10;5.22;;;3.95;;
57778;SDS011;43608;49.486;9.640;2022-12-07T00:31:41;4.70;;;3.70;;
57778;SDS011;43608;49.486;9.640;2022-12-07T00:32:11;4.53;;;3.40;;
57778;SDS011;43608;49.486;9.640;2022-12-07T00:32:42;5.45;;;3.75;;
57778;SDS011;43608;49.486;9.640;2022-12-07T00:33:12;5.10;;;3.70;;
57778;SDS011;43608;49.486;9.640;2022-12-07T00:33:42;5.93;;;4.10;;
57778;SDS011;43608;49.486;9.640;2022-12-07T00:34:18;5.60;;;3.95;;
57778;SDS011;43608;49.486;9.640;2022-12-07T00:34:49;4.63;;;3.72;;
57778;SDS011;43608;49.486;9.640;2022-12-07T00:35:20;5.55;;;3.88;;
57778;SDS011;43608;49.486;9.640;2022-12-07T00:35:54;5.45;;;3.90;;
57778;SDS011;43608;49.486;9.640;2022-12-07T00:36:26;5.25;;;3.90;;
57778;SDS011;43608;49.486;9.640;2022-12-07T00:36:56;5.13;;;3.83;;
57778;SDS011;43608;49.486;9.640;2022-12-07T00:37:26;5.03;;;3.70;;
57778;SDS011;43608;49.486;9.640;2022-12-07T00:37:57;5.47;;;3.80;;
57778;SDS011;43608;49.486;9.640;2022-12-07T00:38:28;4.32;;;3.58;;
57778;SDS011;43608;49.486;9.640;2022-12-07T00:39:00;4.93;;;3.65;;
57778;SDS011;43608;49.486;9.640;2022-12-07T00:39:31;5.22;;;3.80;;
57778;SDS011;43608;49.486;9.640;2022-12-07T00:40:01;4.50;;;3.63;;
57778;SDS011;43608;49.486;9.640;2022-12-07T00:40:31;5.43;;;3.63;;
57778;SDS011;43608;49.486;9.640;2022-12-07T00:41:03;5.60;;;3.92;;
57778;SDS011;43608;49.486;9.640;2022-12-07T00:41:54;4.70;;;3.50;;
57778;SDS011;43608;49.486;9.640;2022-12-07T00:42:24;4.40;;;3.45;;
57778;SDS011;43608;49.486;9.640;2022-12-07T00:42:55;4.95;;;3.78;;
57778;SDS011;43608;49.486;9.640;2022-12-07T00:43:25;5.72;;;4.22;;
57778;SDS011;43608;49.486;9.640;2022-12-07T00:43:57;4.57;;;3.53;;
57778;SDS011;43608;49.486;9.640;2022-12-07T00:44:27;5.05;;;3.90;;
57778;SDS011;43608;49.486;9.640;2022-12-07T00:44:58;5.03;;;3.65;;
57778;SDS011;43608;49.486;9.640;2022-12-07T00:45:28;4.50;;;3.40;;
57778;SDS011;43608;49.486;9.640;2022-12-07T00:45:58;4.88;;;3.72;;
57778;SDS011;43608;49.486;9.640;2022-12-07T00:46:29;5.35;;;3.75;;
57778;SDS011;43608;49.486;9.640;2022-12-07T00:47:00;5.10;;;3.80;;
57778;SDS011;43608;49.486;9.640;2022-12-07T00:47:30;5.00;;;3.63;;
57778;SDS011;43608;49.486;9.640;2022-12-07T00:48:00;5.45;;;4.00;;
57778;SDS011;43608;49.486;9.640;2022-12-07T00:48:31;5.88;;;3.80;;
57778;SDS011;43608;49.486;9.640;2022-12-07T00:49:01;6.00;;;3.97;;
57778;SDS011;43608;49.486;9.640;2022-12-07T00:49:32;5.05;;;3.70;;
57778;SDS011;43608;49.486;9.640;2022-12-07T00:50:02;5.38;;;3.80;;
57778;SDS011;43608;49.486;9.640;2022-12-07T00:50:33;5.35;;;3.95;;
57778;SDS011;43608;49.486;9.640;2022-12-07T00:51:04;5.25;;;3.58;;
57778;SDS011;43608;49.486;9.640;2022-12-07T00:51:35;4.90;;;3.83;;
57778;SDS011;43608;49.486;9.640;2022-12-07T00:52:05;5.30;;;3.85;;
57778;SDS011;43608;49.486;9.640;2022-12-07T00:52:36;5.13;;;4.00;;
57778;SDS011;43608;49.486;9.640;2022-12-07T00:53:06;6.07;;;4.03;;
57778;SDS011;43608;49.486;9.640;2022-12-07T00:53:36;6.57;;;3.92;;
57778;SDS011;43608;49.486;9.640;2022-12-07T00:54:07;5.43;;;4.03;;
57778;SDS011;43608;49.486;9.640;2022-12-07T00:54:38;4.95;;;3.80;;
57778;SDS011;43608;49.486;9.640;2022-12-07T00:55:09;5.32;;;3.88;;
57778;SDS011;43608;49.486;9.640;2022-12-07T00:55:40;5.20;;;3.80;;
57778;SDS011;43608;49.486;9.640;2022-12-07T00:56:14;5.18;;;3.90;;
57778;SDS011;43608;49.486;9.640;2022-12-07T00:56:46;4.50;;;3.53;;
57778;SDS011;43608;49.486;9.640;2022-12-07T00:57:16;5.75;;;4.15;;
57778;SDS011;43608;49.486;9.640;2022-12-07T00:57:46;5.53;;;3.97;;
57778;SDS011;43608;49.486;9.640;2022-12-07T00:58:17;5.38;;;3.97;;
57778;SDS011;43608;49.486;9.640;2022-12-07T00:59:05;5.20;;;3.80;;
57778;SDS011;43608;49.486;9.640;2022-12-07T00:59:36;5.10;;;3.80;;
57778;SDS011;43608;49.486;9.640;2022-12-07T01:00:06;5.28;;;3.80;;
57778;SDS011;43608;49.486;9.640;2022-12-07T01:00:37;5.05;;;3.95;;
57778;SDS011;43608;49.486;9.640;2022-12-07T01:01:09;5.30;;;4.00;;
57778;SDS011;43608;49.486;9.640;2022-12-07T01:01:40;5.43;;;3.92;;
57778;SDS011;43608;49.486;9.640;2022-12-07T01:02:11;5.45;;;3.80;;
57778;SDS011;43608;49.486;9.640;2022-12-07T01:02:41;4.75;;;3.63;;
57778;SDS011;43608;49.486;9.640;2022-12-07T01:03:12;5.05;;;3.75;;
57778;SDS011;43608;49.486;9.640;2022-12-07T01:03:47;6.15;;;4.28;;
57778;SDS011;43608;49.486;9.640;2022-12-07T01:04:17;5.32;;;4.13;;
57778;SDS011;43608;49.486;9.640;2022-12-07T01:04:47;5.45;;;4.00;;
57778;SDS011;43608;49.486;9.640;2022-12-07T01:05:18;4.95;;;3.67;;
57778;SDS011;43608;49.486;9.640;2022-12-07T01:05:49;6.00;;;4.20;;
57778;SDS011;43608;49.486;9.640;2022-12-07T01:06:22;5.80;;;4.00;;
57778;SDS011;43608;49.486;9.640;2022-12-07T01:06:53;5.50;;;3.90;;
57778;SDS011;43608;49.486;9.640;2022-12-07T01:07:24;4.85;;;3.65;;
57778;SDS011;43608;49.486;9.640;2022-12-07T01:07:54;4.75;;;3.63;;
57778;SDS011;43608;49.486;9.640;2022-12-07T01:08:25;5.75;;;3.95;;
57778;SDS011;43608;49.486;9.640;2022-12-07T01:08:57;5.43;;;3.80;;
57778;SDS011;43608;49.486;9.640;2022-12-07T01:09:28;4.90;;;3.78;;
57778;SDS011;43608;49.486;9.640;2022-12-07T01:09:58;4.85;;;3.70;;
57778;SDS011;43608;49.486;9.640;2022-12-07T01:10:28;5.38;;;3.67;;
57778;SDS011;43608;49.486;9.640;2022-12-07T01:11:04;5.20;;;3.90;;
57778;SDS011;43608;49.486;9.640;2022-12-07T01:11:37;5.65;;;3.80;;
57778;SDS011;43608;49.486;9.640;2022-12-07T01:12:07;5.00;;;3.60;;
57778;SDS011;43608;49.486;9.640;2022-12-07T01:12:37;5.72;;;3.72;;
57778;SDS011;43608;49.486;9.640;2022-12-07T01:13:08;4.95;;;3.63;;
57778;SDS011;43608;49.486;9.640;2022-12-07T01:13:38;6.30;;;4.35;;
57778;SDS011;43608;49.486;9.640;2022-12-07T01:14:09;5.30;;;3.83;;
57778;SDS011;43608;49.486;9.640;2022-12-07T01:14:39;4.93;;;3.90;;
57778;SDS011;43608;49.486;9.640;2022-12-07T01:15:11;5.35;;;3.88;;
57778;SDS011;43608;49.486;9.640;2022-12-07T01:15:42;4.88;;;3.72;;
57778;SDS011;43608;49.486;9.640;2022-12-07T01:16:14;4.57;;;3.50;;
57778;SDS011;43608;49.486;9.640;2022-12-07T01:16:45;5.28;;;3.60;;
57778;SDS011;43608;49.486;9.640;2022-12-07T01:17:16;5.70;;;3.95;;
57778;SDS011;43608;49.486;9.640;2022-12-07T01:17:46;5.95;;;4.05;;
57778;SDS011;43608;49.486;9.640;2022-12-07T01:18:16;4.75;;;3.50;;
57778;SDS011;43608;49.486;9.640;2022-12-07T01:18:47;5.30;;;3.80;;
57778;SDS011;43608;49.486;9.640;2022-12-07T01:19:19;4.53;;;3.53;;
57778;SDS011;43608;49.486;9.640;2022-12-07T01:19:49;5.35;;;3.90;;
57778;SDS011;43608;49.486;9.640;2022-12-07T01:20:19;6.00;;;4.00;;
57778;SDS011;43608;49.486;9.640;2022-12-07T01:21:06;5.85;;;3.97;;
57778;SDS011;43608;49.486;9.640;2022-12-07T01:21:39;4.68;;;3.80;;
57778;SDS011;43608;49.486;9.640;2022-12-07T01:22:09;5.63;;;3.65;;
57778;SDS011;43608;49.486;9.640;2022-12-07T01:22:40;5.00;;;3.67;;
57778;SDS011;43608;49.486;9.640;2022-12-07T01:23:11;5.20;;;3.80;;
57778;SDS011;43608;49.486;9.640;2022-12-07T01:23:41;5.40;;;4.20;;
57778;SDS011;43608;49.486;9.640;2022-12-07T01:24:12;5.03;;;3.75;;
57778;SDS011;43608;49.486;9.640;2022-12-07T01:24:42;5.13;;;3.85;;
57778;SDS011;43608;49.486;9.640;2022-12-07T01:25:12;5.28;;;3.80;;
57778;SDS011;43608;49.486;9.640;2022-12-07T01:25:43;4.88;;;3.60;;
57778;SDS011;43608;49.486;9.640;2022-12-07T01:26:18;5.18;;;4.00;;
57778;SDS011;43608;49.486;9.640;2022-12-07T01:26:50;5.47;;;3.53;;
57778;SDS011;43608;49.486;9.640;2022-12-07T01:27:20;5.80;;;3.92;;
57778;SDS011;43608;49.486;9.640;2022-12-07T01:27:51;5.20;;;3.88;;
57778;SDS011;43608;49.486;9.640;2022-12-07T01:28:21;5.00;;;3.65;;
57778;SDS011;43608;49.486;9.640;2022-12-07T01:28:52;5.50;;;4.00;;
57778;SDS011;43608;49.486;9.640;2022-12-07T01:29:24;5.68;;;3.95;;
57778;SDS011;43608;49.486;9.640;2022-12-07T01:29:55;4.93;;;3.80;;
57778;SDS011;43608;49.486;9.640;2022-12-07T01:30:25;4.93;;;3.85;;
57778;SDS011;43608;49.486;9.640;2022-12-07T01:30:59;5.07;;;3.65;;
57778;SDS011;43608;49.486;9.640;2022-12-07T01:31:31;5.07;;;3.80;;
57778;SDS011;43608;49.486;9.640;2022-12-07T01:32:01;5.57;;;3.70;;
57778;SDS011;43608;49.486;9.640;2022-12-07T01:32:32;5.47;;;3.90;;
57778;SDS011;43608;49.486;9.640;2022-12-07T01:33:03;4.93;;;3.80;;
57778;SDS011;43608;49.486;9.640;2022-12-07T01:33:35;4.93;;;3.75;;
57778;SDS011;43608;49.486;9.640;2022-12-07T01:34:07;5.25;;;3.85;;
57778;SDS011;43608;49.486;9.640;2022-12-07T01:34:38;5.75;;;3.80;;
57778;SDS011;43608;49.486;9.640;2022-12-07T01:35:08;4.95;;;3.90;;
57778;SDS011;43608;49.486;9.640;2022-12-07T01:35:39;5.40;;;3.95;;
57778;SDS011;43608;49.486;9.640;2022-12-07T01:36:13;5.22;;;3.90;;
57778;SDS011;43608;49.486;9.640;2022-12-07T01:36:55;5.22;;;3.60;;
57778;SDS011;43608;49.486;9.640;2022-12-07T01:37:25;5.05;;;3.80;;
57778;SDS011;43608;49.486;9.640;2022-12-07T01:37:55;5.55;;;4.20;;
57778;SDS011;43608;49.486;9.640;2022-12-07T01:38:26;5.65;;;4.13;;
57778;SDS011;43608;49.486;9.640;2022-12-07T01:38:57;5.57;;;4.18;;
57778;SDS011;43608;49.486;9.640;2022-12-07T01:39:29;5.28;;;4.10;;
57778;SDS011;43608;49.486;9.640;2022-12-07T01:40:00;5.47;;;3.97;;
57778;SDS011;43608;49.486;9.640;2022-12-07T01:40:30;5.90;;;4.38;;
57778;SDS011;43608;49.486;9.640;2022-12-07T01:41:01;5.20;;;4.25;;
57778;SDS011;43608;49.486;9.640;2022-12-07T01:41:33;6.60;;;4.30;;
57778;SDS011;43608;49.486;9.640;2022-12-07T01:42:08;5.70;;;4.15;;
57778;SDS011;43608;49.486;9.640;2022-12-07T01:42:40;5.57;;;4.13;;
57778;SDS011;43608;49.486;9.640;2022-12-07T01:43:14;6.55;;;4.68;;
57778;SDS011;43608;49.486;9.640;2022-12-07T01:45:46;5.88;;;4.20;;
57778;SDS011;43608;49.486;9.640;2022-12-07T01:46:19;5.82;;;4.22;;
57778;SDS011;43608;49.486;9.640;2022-12-07T01:46:53;6.13;;;4.50;;
57778;SDS011;43608;49.486;9.640;2022-12-07T01:47:25;6.00;;;3.97;;
57778;SDS011;43608;49.486;9.640;2022-12-07T01:47:56;6.30;;;4.55;;
57778;SDS011;43608;49.486;9.640;2022-12-07T01:48:46;5.72;;;4.45;;
57778;SDS011;43608;49.486;9.640;2022-12-07T01:49:20;6.82;;;4.30;;
57778;SDS011;43608;49.486;9.640;2022-12-07T01:49:51;5.50;;;4.18;;
57778;SDS011;43608;49.486;9.640;2022-12-07T01:50:23;5.45;;;3.85;;
57778;SDS011;43608;49.486;9.640;2022-12-07T01:50:56;6.05;;;4.13;;
57778;SDS011;43608;49.486;9.640;2022-12-07T01:51:36;6.25;;;4.38;;
57778;SDS011;43608;49.486;9.640;2022-12-07T01:52:28;6.30;;;4.20;;
57778;SDS011;43608;49.486;9.640;2022-12-07T01:53:02;4.90;;;3.70;;
57778;SDS011;43608;49.486;9.640;2022-12-07T01:53:38;6.50;;;4.32;;
57778;SDS011;43608;49.486;9.640;2022-12-07T01:54:13;5.50;;;3.83;;
57778;SDS011;43608;49.486;9.640;2022-12-07T01:54:46;5.72;;;4.15;;
57778;SDS011;43608;49.486;9.640;2022-12-07T01:55:19;4.82;;;3.60;;
57778;SDS011;43608;49.486;9.640;2022-12-07T01:55:50;5.43;;;4.10;;
57778;SDS011;43608;49.486;9.640;2022-12-07T01:56:24;5.40;;;3.90;;
57778;SDS011;43608;49.486;9.640;2022-12-07T01:56:57;5.35;;;3.83;;
57778;SDS011;43608;49.486;9.640;2022-12-07T01:57:28;5.75;;;3.95;;
57778;SDS011;43608;49.486;9.640;2022-12-07T01:58:00;6.20;;;4.15;;
57778;SDS011;43608;49.486;9.640;2022-12-07T01:58:30;5.28;;;3.83;;
57778;SDS011;43608;49.486;9.640;2022-12-07T01:59:01;5.30;;;3.92;;
57778;SDS011;43608;49.486;9.640;2022-12-07T01:59:31;6.60;;;4.10;;
57778;SDS011;43608;49.486;9.640;2022-12-07T02:00:03;6.35;;;4.47;;
57778;SDS011;43608;49.486;9.640;2022-12-07T02:00:36;5.82;;;4.20;;
57778;SDS011;43608;49.486;9.640;2022-12-07T02:01:06;6.57;;;4.35;;
57778;SDS011;43608;49.486;9.640;2022-12-07T02:01:37;6.35;;;4.55;;
57778;SDS011;43608;49.486;9.640;2022-12-07T02:02:08;5.38;;;4.13;;
57778;SDS011;43608;49.486;9.640;2022-12-07T02:02:44;5.30;;;3.97;;
57778;SDS011;43608;49.486;9.640;2022-12-07T02:03:27;5.82;;;4.05;;
57778;SDS011;43608;49.486;9.640;2022-12-07T02:04:02;5.03;;;3.83;;
57778;SDS011;43608;49.486;9.640;2022-12-07T02:04:33;6.32;;;4.40;;
57778;SDS011;43608;49.486;9.640;2022-12-07T02:05:05;5.40;;;4.25;;
57778;SDS011;43608;49.486;9.640;2022-12-07T02:05:37;5.45;;;4.00;;
57778;SDS011;43608;49.486;9.640;2022-12-07T02:06:09;5.43;;;4.03;;
57778;SDS011;43608;49.486;9.640;2022-12-07T02:06:43;5.82;;;3.95;;
57778;SDS011;43608;49.486;9.640;2022-12-07T02:07:15;5.80;;;3.95;;
57778;SDS011;43608;49.486;9.640;2022-12-07T02:07:46;4.97;;;3.78;;
57778;SDS011;43608;49.486;9.640;2022-12-07T02:08:18;6.47;;;4.10;;
57778;SDS011;43608;49.486;9.640;2022-12-07T02:08:49;4.85;;;3.83;;
57778;SDS011;43608;49.486;9.640;2022-12-07T02:09:20;4.93;;;3.70;;
57778;SDS011;43608;49.486;9.640;2022-12-07T02:09:50;4.68;;;3.80;;
57778;SDS011;43608;49.486;9.640;2022-12-07T02:10:22;5.80;;;4.18;;
57778;SDS011;43608;49.486;9.640;2022-12-07T02:10:54;6.07;;;4.07;;
57778;SDS011;43608;49.486;9.640;2022-12-07T02:11:25;6.30;;;4.28;;
57778;SDS011;43608;49.486;9.640;2022-12-07T02:11:55;4.85;;;3.85;;
57778;SDS011;43608;49.486;9.640;2022-12-07T02:12:26;5.57;;;4.07;;
57778;SDS011;43608;49.486;9.640;2022-12-07T02:12:58;5.43;;;3.90;;
57778;SDS011;43608;49.486;9.640;2022-12-07T02:13:33;4.93;;;3.67;;
57778;SDS011;43608;49.486;9.640;2022-12-07T02:14:05;4.97;;;3.83;;
57778;SDS011;43608;49.486;9.640;2022-12-07T02:14:36;5.53;;;3.80;;
57778;SDS011;43608;49.486;9.640;2022-12-07T02:15:07;5.75;;;4.28;;
57778;SDS011;43608;49.486;9.640;2022-12-07T02:16:02;5.28;;;4.00;;
57778;SDS011;43608;49.486;9.640;2022-12-07T02:18:02;6.00;;;4.00;;
57778;SDS011;43608;49.486;9.640;2022-12-07T02:20:27;4.85;;;3.50;;
57778;SDS011;43608;49.486;9.640;2022-12-07T02:21:11;4.90;;;3.55;;
57778;SDS011;43608;49.486;9.640;2022-12-07T02:22:43;5.32;;;3.67;;
57778;SDS011;43608;49.486;9.640;2022-12-07T02:25:38;4.80;;;3.67;;
57778;SDS011;43608;49.486;9.640;2022-12-07T02:30:17;6.00;;;3.92;;
57778;SDS011;43608;49.486;9.640;2022-12-07T02:30:49;5.13;;;3.90;;
57778;SDS011;43608;49.486;9.640;2022-12-07T02:31:22;5.43;;;4.30;;
57778;SDS011;43608;49.486;9.640;2022-12-07T02:32:02;5.72;;;4.20;;
57778;SDS011;43608;49.486;9.640;2022-12-07T02:33:28;5.55;;;4.13;;
57778;SDS011;43608;49.486;9.640;2022-12-07T02:34:11;5.90;;;4.35;;
57778;SDS011;43608;49.486;9.640;2022-12-07T02:34:51;5.70;;;4.20;;
57778;SDS011;43608;49.486;9.640;2022-12-07T02:36:04;5.82;;;4.03;;
57778;SDS011;43608;49.486;9.640;2022-12-07T02:36:41;5.70;;;3.95;;
57778;SDS011;43608;49.486;9.640;2022-12-07T02:38:31;5.80;;;3.75;;
57778;SDS011;43608;49.486;9.640;2022-12-07T02:39:18;5.35;;;4.10;;
57778;SDS011;43608;49.486;9.640;2022-12-07T02:40:05;5.80;;;4.10;;
57778;SDS011;43608;49.486;9.640;2022-12-07T02:40:38;5.93;;;3.97;;
57778;SDS011;43608;49.486;9.640;2022-12-07T02:41:18;5.47;;;3.75;;
57778;SDS011;43608;49.486;9.640;2022-12-07T02:41:56;6.65;;;4.25;;
57778;SDS011;43608;49.486;9.640;2022-12-07T02:42:36;5.80;;;3.95;;
57778;SDS011;43608;49.486;9.640;2022-12-07T02:43:48;6.00;;;4.38;;
57778;SDS011;43608;49.486;9.640;2022-12-07T02:44:25;5.55;;;4.15;;
57778;SDS011;43608;49.486;9.640;2022-12-07T02:44:57;5.70;;;4.30;;
57778;SDS011;43608;49.486;9.640;2022-12-07T02:45:29;5.60;;;4.05;;
57778;SDS011;43608;49.486;9.640;2022-12-07T02:46:02;5.85;;;4.03;;
57778;SDS011;43608;49.486;9.640;2022-12-07T02:46:39;6.10;;;4.50;;
57778;SDS011;43608;49.486;9.640;2022-12-07T02:47:13;5.57;;;4.03;;
57778;SDS011;43608;49.486;9.640;2022-12-07T02:47:47;6.53;;;4.80;;
57778;SDS011;43608;49.486;9.640;2022-12-07T02:48:20;5.57;;;4.18;;
57778;SDS011;43608;49.486;9.640;2022-12-07T02:48:53;5.45;;;4.07;;
57778;SDS011;43608;49.486;9.640;2022-12-07T02:49:25;6.07;;;4.28;;
57778;SDS011;43608;49.486;9.640;2022-12-07T02:49:57;5.50;;;4.25;;
57778;SDS011;43608;49.486;9.640;2022-12-07T02:50:28;6.50;;;4.55;;
57778;SDS011;43608;49.486;9.640;2022-12-07T02:50:58;5.95;;;4.25;;
57778;SDS011;43608;49.486;9.640;2022-12-07T02:51:29;5.18;;;4.15;;
57778;SDS011;43608;49.486;9.640;2022-12-07T02:52:01;5.88;;;4.28;;
57778;SDS011;43608;49.486;9.640;2022-12-07T02:52:31;5.20;;;3.85;;
57778;SDS011;43608;49.486;9.640;2022-12-07T02:53:01;5.80;;;4.13;;
57778;SDS011;43608;49.486;9.640;2022-12-07T02:53:32;4.95;;;4.03;;
57778;SDS011;43608;49.486;9.640;2022-12-07T02:54:09;5.95;;;4.47;;
57778;SDS011;43608;49.486;9.640;2022-12-07T02:54:42;5.90;;;4.30;;
57778;SDS011;43608;49.486;9.640;2022-12-07T02:55:13;6.18;;;4.47;;
57778;SDS011;43608;49.486;9.640;2022-12-07T02:55:47;6.43;;;4.40;;
57778;SDS011;43608;49.486;9.640;2022-12-07T02:57:00;5.85;;;4.25;;
57778;SDS011;43608;49.486;9.640;2022-12-07T02:57:42;5.53;;;4.05;;
57778;SDS011;43608;49.486;9.640;2022-12-07T02:58:23;4.97;;;3.53;;
57778;SDS011;43608;49.486;9.640;2022-12-07T03:00:36;5.78;;;3.72;;
57778;SDS011;43608;49.486;9.640;2022-12-07T03:03:04;5.97;;;4.10;;
57778;SDS011;43608;49.486;9.640;2022-12-07T03:03:39;5.10;;;3.80;;
57778;SDS011;43608;49.486;9.640;2022-12-07T03:06:15;5.53;;;3.95;;
57778;SDS011;43608;49.486;9.640;2022-12-07T03:06:57;6.03;;;3.85;;
57778;SDS011;43608;49.486;9.640;2022-12-07T03:07:49;5.57;;;3.95;;
57778;SDS011;43608;49.486;9.640;2022-12-07T03:09:01;4.97;;;3.80;;
57778;SDS011;43608;49.486;9.640;2022-12-07T03:09:45;5.35;;;4.00;;
57778;SDS011;43608;49.486;9.640;2022-12-07T03:11:21;5.82;;;4.25;;
57778;SDS011;43608;49.486;9.640;2022-12-07T03:12:45;6.78;;;4.60;;
57778;SDS011;43608;49.486;9.640;2022-12-07T03:14:21;6.55;;;4.53;;
57778;SDS011;43608;49.486;9.640;2022-12-07T03:17:14;6.20;;;4.40;;
57778;SDS011;43608;49.486;9.640;2022-12-07T03:17:50;6.40;;;4.70;;
57778;SDS011;43608;49.486;9.640;2022-12-07T03:18:25;6.95;;;4.90;;
57778;SDS011;43608;49.486;9.640;2022-12-07T03:19:03;6.35;;;4.80;;
57778;SDS011;43608;49.486;9.640;2022-12-07T03:19:38;6.05;;;4.75;;
57778;SDS011;43608;49.486;9.640;2022-12-07T03:20:11;6.55;;;4.80;;
57778;SDS011;43608;49.486;9.640;2022-12-07T03:20:46;7.28;;;5.05;;
57778;SDS011;43608;49.486;9.640;2022-12-07T03:21:23;6.75;;;4.80;;
57778;SDS011;43608;49.486;9.640;2022-12-07T03:22:03;6.88;;;4.60;;
57778;SDS011;43608;49.486;9.640;2022-12-07T03:23:10;5.93;;;4.18;;
57778;SDS011;43608;49.486;9.640;2022-12-07T03:23:43;6.40;;;4.70;;
57778;SDS011;43608;49.486;9.640;2022-12-07T03:24:19;8.15;;;4.90;;
57778;SDS011;43608;49.486;9.640;2022-12-07T03:24:55;6.70;;;4.65;;
57778;SDS011;43608;49.486;9.640;2022-12-07T03:25:28;6.03;;;4.40;;
57778;SDS011;43608;49.486;9.640;2022-12-07T03:25:59;5.95;;;4.60;;
57778;SDS011;43608;49.486;9.640;2022-12-07T03:26:34;6.65;;;4.78;;
57778;SDS011;43608;49.486;9.640;2022-12-07T03:27:10;6.85;;;4.90;;
57778;SDS011;43608;49.486;9.640;2022-12-07T03:27:56;7.13;;;4.90;;
57778;SDS011;43608;49.486;9.640;2022-12-07T03:28:33;7.22;;;4.85;;
57778;SDS011;43608;49.486;9.640;2022-12-07T03:29:10;6.03;;;4.53;;
57778;SDS011;43608;49.486;9.640;2022-12-07T03:29:46;6.43;;;4.63;;
57778;SDS011;43608;49.486;9.640;2022-12-07T03:30:24;6.63;;;4.80;;
57778;SDS011;43608;49.486;9.640;2022-12-07T03:31:10;7.35;;;5.25;;
57778;SDS011;43608;49.486;9.640;2022-12-07T03:32:02;7.63;;;4.95;;
57778;SDS011;43608;49.486;9.640;2022-12-07T03:32:40;7.10;;;5.20;;
57778;SDS011;43608;49.486;9.640;2022-12-07T03:33:21;7.07;;;4.88;;
57778;SDS011;43608;49.486;9.640;2022-12-07T03:34:44;8.13;;;5.25;;
57778;SDS011;43608;49.486;9.640;2022-12-07T03:35:32;6.75;;;4.95;;
57778;SDS011;43608;49.486;9.640;2022-12-07T03:36:07;7.18;;;5.20;;
57778;SDS011;43608;49.486;9.640;2022-12-07T03:36:47;7.25;;;5.03;;
57778;SDS011;43608;49.486;9.640;2022-12-07T03:39:18;7.63;;;5.40;;
57778;SDS011;43608;49.486;9.640;2022-12-07T03:40:47;7.55;;;5.60;;
57778;SDS011;43608;49.486;9.640;2022-12-07T03:41:25;8.57;;;6.10;;
57778;SDS011;43608;49.486;9.640;2022-12-07T03:41:59;7.72;;;5.60;;
57778;SDS011;43608;49.486;9.640;2022-12-07T03:42:31;8.95;;;6.22;;
57778;SDS011;43608;49.486;9.640;2022-12-07T03:43:03;9.27;;;6.35;;
57778;SDS011;43608;49.486;9.640;2022-12-07T03:43:34;8.43;;;6.05;;
57778;SDS011;43608;49.486;9.640;2022-12-07T03:44:06;7.57;;;5.43;;
57778;SDS011;43608;49.486;9.640;2022-12-07T03:44:37;7.97;;;6.05;;
57778;SDS011;43608;49.486;9.640;2022-12-07T03:45:09;7.03;;;5.60;;
57778;SDS011;43608;49.486;9.640;2022-12-07T03:45:45;8.18;;;6.00;;
57778;SDS011;43608;49.486;9.640;2022-12-07T03:46:37;7.55;;;5.47;;
57778;SDS011;43608;49.486;9.640;2022-12-07T03:47:52;7.32;;;5.35;;
57778;SDS011;43608;49.486;9.640;2022-12-07T03:48:37;8.07;;;5.40;;
57778;SDS011;43608;49.486;9.640;2022-12-07T03:49:14;7.38;;;5.20;;
57778;SDS011;43608;49.486;9.640;2022-12-07T03:49:49;7.72;;;5.43;;
57778;SDS011;43608;49.486;9.640;2022-12-07T03:52:43;7.60;;;5.57;;
57778;SDS011;43608;49.486;9.640;2022-12-07T03:53:20;8.75;;;5.70;;
57778;SDS011;43608;49.486;9.640;2022-12-07T03:54:00;7.78;;;5.50;;
57778;SDS011;43608;49.486;9.640;2022-12-07T03:55:30;8.68;;;5.97;;
57778;SDS011;43608;49.486;9.640;2022-12-07T03:56:03;7.55;;;5.75;;
57778;SDS011;43608;49.486;9.640;2022-12-07T03:56:34;7.55;;;5.70;;